createdAt,value
2022-11-23T00:00:47.062Z,22.05
2022-11-23T00:03:15.729Z,24.52
2022-11-23T00:05:44.743Z,28.20
2022-11-23T00:08:12.327Z,21.02
2022-11-23T00:10:40.034Z,25.25
2022-11-23T00:13:07.691Z,25.30
2022-11-23T00:15:35.978Z,26.60
2022-11-23T00:18:03.725Z,23.23
2022-11-23T00:20:31.478Z,25.90
2022-11-23T00:23:00.545Z,26.95
2022-11-23T00:25:28.405Z,26.98
2022-11-23T00:27:56.051Z,27.90
2022-11-23T00:30:23.850Z,23.17
2022-11-23T00:32:53.100Z,32.70
2022-11-23T00:35:20.795Z,27.30
2022-11-23T00:37:48.656Z,29.75
2022-11-23T00:40:18.032Z,29.98
2022-11-23T00:42:45.741Z,25.33
2022-11-23T00:45:13.500Z,25.92
2022-11-23T00:47:41.220Z,24.75
2022-11-23T00:50:09.510Z,23.63
2022-11-23T00:52:37.251Z,25.65
2022-11-23T00:55:05.916Z,26.50
2022-11-23T00:57:35.663Z,23.88
2022-11-23T01:00:03.629Z,24.85
2022-11-23T01:02:31.344Z,22.20
2022-11-23T01:04:58.966Z,25.15
2022-11-23T01:07:26.745Z,28.23
2022-11-23T01:09:54.516Z,31.23
2022-11-23T01:12:22.506Z,23.98
2022-11-23T01:14:54.034Z,23.52
2022-11-23T01:17:22.974Z,24.85
2022-11-23T01:19:52.346Z,24.63
2022-11-23T01:22:21.069Z,22.20
2022-11-23T01:24:51.346Z,24.40
2022-11-23T01:27:19.078Z,28.92
2022-11-23T01:29:46.847Z,28.67
2022-11-23T01:32:16.048Z,25.33
2022-11-23T01:34:43.757Z,28.10
2022-11-23T01:37:12.047Z,27.95
2022-11-23T01:39:39.828Z,31.05
2022-11-23T01:42:08.609Z,25.77
2022-11-23T01:44:38.579Z,23.23
2022-11-23T01:47:08.609Z,23.58
2022-11-23T01:49:41.618Z,24.83
2022-11-23T01:52:12.865Z,25.67
2022-11-23T01:54:46.374Z,26.85
2022-11-23T01:57:20.301Z,25.17
2022-11-23T01:59:48.556Z,25.77
2022-11-23T02:02:17.970Z,23.95
2022-11-23T02:04:51.580Z,23.83
2022-11-23T02:07:20.559Z,24.02
2022-11-23T02:09:49.073Z,23.60
2022-11-23T02:12:17.117Z,20.85
2022-11-23T02:14:45.847Z,23.73
2022-11-23T02:17:13.747Z,25.35
2022-11-23T02:19:52.785Z,26.00
2022-11-23T02:22:27.700Z,21.33
2022-11-23T02:24:56.670Z,22.58
2022-11-23T02:27:28.274Z,23.58
2022-11-23T02:30:01.195Z,25.45
2022-11-23T02:32:29.912Z,26.08
2022-11-23T02:34:57.642Z,25.00
2022-11-23T02:37:26.087Z,28.73
2022-11-23T02:39:55.459Z,25.00
2022-11-23T02:42:24.383Z,25.52
2022-11-23T02:45:01.659Z,26.73
2022-11-23T02:47:30.583Z,29.07
2022-11-23T02:49:58.334Z,28.00
2022-11-23T02:52:26.854Z,27.75
2022-11-23T02:54:54.874Z,22.98
2022-11-23T02:57:22.581Z,26.52
2022-11-23T02:59:50.605Z,25.50
2022-11-23T03:02:19.690Z,27.08
2022-11-23T03:04:48.045Z,26.25
2022-11-23T03:07:19.573Z,25.27
2022-11-23T03:09:49.636Z,25.63
2022-11-23T03:12:18.076Z,26.20
2022-11-23T03:14:48.166Z,27.67
2022-11-23T03:17:15.946Z,27.52
2022-11-23T03:19:46.811Z,31.00
2022-11-23T03:22:14.802Z,27.67
2022-11-23T03:24:42.597Z,29.20
2022-11-23T03:27:15.821Z,30.92
2022-11-23T03:29:44.495Z,31.27
2022-11-23T03:32:17.785Z,25.50
2022-11-23T03:34:50.127Z,25.95
2022-11-23T03:37:20.289Z,29.87
2022-11-23T03:39:48.716Z,30.55
2022-11-23T03:42:45.580Z,28.55
2022-11-23T03:45:13.427Z,28.27
2022-11-23T03:47:41.720Z,30.92
2022-11-23T03:50:11.288Z,32.17
2022-11-23T03:52:39.278Z,31.20
2022-11-23T03:55:07.709Z,25.92
2022-11-23T03:57:36.035Z,33.50
2022-11-23T04:00:06.889Z,27.55
2022-11-23T04:02:40.975Z,27.80
2022-11-23T04:05:27.807Z,27.20
2022-11-23T04:08:23.649Z,29.83
2022-11-23T04:10:52.703Z,27.25
2022-11-23T04:13:23.970Z,30.60
2022-11-23T04:15:51.748Z,28.17
2022-11-23T04:18:19.601Z,31.27
2022-11-23T04:20:49.141Z,26.92
2022-11-23T04:23:19.021Z,28.00
2022-11-23T04:25:48.941Z,27.13
2022-11-23T04:28:16.981Z,29.73
2022-11-23T04:30:47.761Z,25.85
2022-11-23T04:33:16.194Z,24.92
2022-11-23T04:35:45.087Z,21.55
2022-11-23T04:38:14.943Z,20.92
2022-11-23T04:40:43.549Z,24.03
2022-11-23T04:43:12.222Z,26.17
2022-11-23T04:45:40.924Z,24.83
2022-11-23T04:48:15.033Z,29.05
2022-11-23T04:50:46.713Z,25.00
2022-11-23T04:53:22.977Z,29.47
2022-11-23T04:55:51.157Z,23.67
2022-11-23T04:58:19.178Z,26.30
2022-11-23T05:00:51.742Z,24.45
2022-11-23T05:03:20.102Z,28.45
2022-11-23T05:05:47.850Z,27.63
2022-11-23T05:08:15.711Z,32.72
2022-11-23T05:10:53.675Z,30.65
2022-11-23T05:13:21.412Z,31.55
2022-11-23T05:15:50.288Z,28.60
2022-11-23T05:18:24.284Z,32.40
2022-11-23T05:20:52.162Z,29.42
2022-11-23T05:23:20.301Z,28.92
2022-11-23T05:25:48.303Z,30.10
2022-11-23T05:31:14.146Z,29.23
2022-11-23T05:33:44.250Z,28.13
2022-11-23T05:36:14.001Z,31.92
2022-11-23T05:38:43.813Z,26.58
2022-11-23T05:41:25.119Z,28.00
2022-11-23T05:43:59.264Z,32.23
2022-11-23T05:46:29.395Z,27.15
2022-11-23T05:48:57.162Z,28.67
2022-11-23T05:51:25.848Z,28.65
2022-11-23T05:53:53.731Z,26.17
2022-11-23T05:56:37.267Z,25.20
2022-11-23T05:59:14.988Z,22.40
2022-11-23T06:01:46.721Z,25.35
2022-11-23T06:04:22.584Z,20.30
2022-11-23T06:06:50.391Z,23.50
2022-11-23T06:09:18.185Z,22.47
2022-11-23T06:11:48.263Z,22.63
2022-11-23T06:14:20.968Z,24.15
2022-11-23T06:16:49.250Z,22.70
2022-11-23T06:19:40.014Z,22.88
2022-11-23T06:22:08.023Z,22.43
2022-11-23T06:24:43.159Z,18.83
2022-11-23T06:27:36.012Z,21.15
2022-11-23T06:30:10.566Z,23.20
2022-11-23T06:32:38.835Z,21.58
2022-11-23T06:35:06.863Z,23.33
2022-11-23T06:37:38.984Z,19.08
2022-11-23T06:40:07.897Z,20.98
2022-11-23T06:42:40.065Z,22.40
2022-11-23T06:45:17.507Z,24.00
2022-11-23T06:47:46.342Z,21.53
2022-11-23T06:50:15.387Z,17.45
2022-11-23T06:52:46.246Z,23.10
2022-11-23T06:55:15.486Z,24.90
2022-11-23T06:57:43.234Z,18.90
2022-11-23T07:00:14.006Z,21.43
2022-11-23T07:02:45.224Z,24.55
2022-11-23T07:05:15.267Z,20.17
2022-11-23T07:07:43.077Z,21.08
2022-11-23T07:10:18.804Z,22.00
2022-11-23T07:12:50.577Z,19.37
2022-11-23T07:15:21.410Z,22.38
2022-11-23T07:17:52.754Z,21.23
2022-11-23T07:20:22.471Z,24.30
2022-11-23T07:22:50.309Z,19.25
2022-11-23T07:25:19.136Z,22.60
2022-11-23T07:27:47.041Z,22.58
2022-11-23T07:30:15.729Z,19.98
2022-11-23T07:32:43.579Z,20.75
2022-11-23T07:35:12.932Z,22.88
2022-11-23T07:37:43.851Z,20.57
2022-11-23T07:40:11.830Z,24.13
2022-11-23T07:42:44.844Z,22.10
2022-11-23T07:45:13.755Z,20.20
2022-11-23T07:47:45.725Z,20.73
2022-11-23T07:50:15.867Z,24.03
2022-11-23T07:52:43.540Z,23.63
2022-11-23T07:55:11.411Z,20.20
2022-11-23T07:57:39.213Z,22.15
2022-11-23T08:00:08.563Z,25.33
2022-11-23T08:02:57.898Z,24.27
2022-11-23T08:05:32.695Z,21.08
2022-11-23T08:08:00.950Z,25.65
2022-11-23T08:10:29.311Z,24.63
2022-11-23T08:12:58.538Z,28.33
2022-11-23T08:15:28.044Z,21.93
2022-11-23T08:17:56.962Z,26.60
2022-11-23T08:20:24.953Z,25.85
2022-11-23T08:22:55.878Z,23.98
2022-11-23T08:25:24.258Z,21.50
2022-11-23T08:27:56.042Z,23.53
2022-11-23T08:30:23.888Z,23.08
2022-11-23T08:32:51.780Z,22.92
2022-11-23T08:35:19.640Z,17.27
2022-11-23T08:37:47.373Z,21.48
2022-11-23T08:40:22.075Z,19.90
2022-11-23T08:42:52.809Z,20.58
2022-11-23T08:45:20.709Z,18.77
2022-11-23T08:47:48.427Z,15.45
2022-11-23T08:50:16.197Z,21.08
2022-11-23T08:52:43.942Z,15.57
2022-11-23T08:55:11.649Z,19.85
2022-11-23T08:57:41.254Z,17.02
2022-11-23T09:00:10.747Z,15.23
2022-11-23T09:02:38.558Z,16.90
2022-11-23T09:05:07.589Z,14.70
2022-11-23T09:07:35.423Z,16.33
2022-11-23T09:10:03.133Z,15.57
2022-11-23T09:12:30.979Z,12.90
2022-11-23T09:15:00.018Z,12.85
2022-11-23T09:17:27.865Z,15.77
2022-11-23T09:19:55.553Z,17.80
2022-11-23T09:22:23.319Z,16.52
2022-11-23T09:24:51.079Z,11.75
2022-11-23T09:27:19.068Z,17.45
2022-11-23T09:29:46.894Z,18.00
2022-11-23T09:32:16.006Z,17.08
2022-11-23T09:34:43.946Z,15.90
2022-11-23T09:37:11.798Z,12.55
2022-11-23T09:39:39.530Z,12.75
2022-11-23T09:42:37.003Z,13.57
2022-11-23T09:45:15.294Z,14.73
2022-11-23T09:48:01.559Z,14.32
2022-11-23T09:50:34.244Z,12.60
2022-11-23T09:53:05.642Z,17.02
2022-11-23T09:55:39.735Z,17.03
2022-11-23T09:58:08.247Z,14.20
2022-11-23T10:00:39.421Z,10.55
2022-11-23T10:03:15.813Z,14.10
2022-11-23T10:05:49.838Z,11.55
2022-11-23T10:08:25.085Z,20.40
2022-11-23T10:11:02.660Z,17.50
2022-11-23T10:13:36.538Z,17.33
2022-11-23T10:16:20.267Z,11.27
2022-11-23T10:18:58.633Z,9.80
2022-11-23T10:21:35.858Z,20.20
2022-11-23T10:24:16.219Z,12.13
2022-11-23T10:26:46.031Z,16.00
2022-11-23T10:29:16.935Z,19.35
2022-11-23T10:31:50.476Z,15.13
2022-11-23T10:34:38.430Z,14.03
2022-11-23T10:37:11.061Z,13.55
2022-11-23T10:39:38.899Z,14.95
2022-11-23T10:42:18.923Z,11.45
2022-11-23T10:44:47.640Z,11.18
2022-11-23T10:47:35.144Z,15.83
2022-11-23T10:50:04.873Z,13.50
2022-11-23T10:52:33.851Z,14.52
2022-11-23T10:55:03.853Z,8.93
2022-11-23T10:57:34.728Z,15.10
2022-11-23T11:00:15.070Z,14.27
2022-11-23T11:02:45.201Z,12.68
2022-11-23T11:06:01.127Z,14.07
2022-11-23T11:08:17.140Z,12.13
2022-11-23T11:10:50.008Z,8.80
2022-11-23T11:13:30.957Z,10.07
2022-11-23T11:16:00.915Z,10.77
2022-11-23T11:18:31.635Z,15.55
2022-11-23T11:21:03.578Z,11.82
2022-11-23T11:23:32.693Z,13.88
2022-11-23T11:26:10.448Z,9.13
2022-11-23T11:28:41.611Z,13.93
2022-11-23T11:31:31.756Z,16.25
2022-11-23T11:34:07.043Z,14.32
2022-11-23T11:36:41.274Z,10.60
2022-11-23T11:39:18.739Z,9.53
2022-11-23T11:41:50.292Z,14.68
2022-11-23T11:44:22.582Z,13.82
2022-11-23T11:46:55.417Z,13.85
2022-11-23T11:49:27.251Z,18.08
2022-11-23T11:52:03.380Z,14.00
2022-11-23T11:54:39.066Z,11.55
2022-11-23T11:57:15.877Z,12.10
2022-11-23T11:59:48.245Z,15.73
2022-11-23T12:02:21.430Z,11.48
2022-11-23T12:04:57.421Z,12.50
2022-11-23T12:07:31.691Z,11.18
2022-11-23T12:10:05.914Z,14.93
2022-11-23T12:12:37.053Z,10.48
2022-11-23T12:15:26.314Z,12.07
2022-11-23T12:18:19.496Z,15.03
2022-11-23T12:20:56.102Z,13.10
2022-11-23T12:23:36.221Z,12.05
2022-11-23T12:26:24.706Z,10.13
2022-11-23T12:29:10.015Z,12.68
2022-11-23T12:31:43.139Z,10.17
2022-11-23T12:34:24.964Z,11.23
2022-11-23T12:37:10.043Z,14.75
2022-11-23T12:39:59.519Z,11.73
2022-11-23T12:42:37.935Z,11.25
2022-11-23T12:45:32.177Z,11.63
2022-11-23T12:48:11.368Z,7.60
2022-11-23T12:50:46.328Z,11.95
2022-11-23T12:53:29.852Z,11.32
2022-11-23T12:56:09.487Z,10.00
2022-11-23T12:58:39.562Z,7.97
2022-11-23T13:01:13.575Z,9.85
2022-11-23T13:04:15.073Z,9.35
2022-11-23T13:07:27.761Z,8.68
2022-11-23T13:10:19.196Z,6.25
2022-11-23T13:13:16.045Z,6.17
2022-11-23T13:16:01.031Z,11.52
2022-11-23T13:18:48.131Z,9.60
2022-11-23T13:21:22.986Z,11.32
2022-11-23T13:23:51.154Z,11.27
2022-11-23T13:26:21.179Z,10.97
2022-11-23T13:28:52.305Z,7.85
2022-11-23T13:31:25.818Z,8.68
2022-11-23T13:33:56.312Z,8.20
2022-11-23T13:37:11.578Z,9.60
2022-11-23T13:40:03.905Z,10.13
2022-11-23T13:42:34.640Z,9.30
2022-11-23T13:45:26.967Z,9.30
2022-11-23T13:48:06.673Z,7.50
2022-11-23T13:50:35.038Z,10.63
2022-11-23T13:53:04.162Z,10.00
2022-11-23T13:55:36.184Z,8.25
2022-11-23T13:58:47.044Z,7.93
2022-11-23T14:01:55.102Z,8.00
2022-11-23T14:04:24.587Z,10.27
2022-11-23T14:06:56.906Z,6.83
2022-11-23T14:09:29.328Z,9.57
2022-11-23T14:12:03.345Z,8.02
2022-11-23T14:14:37.881Z,6.65
2022-11-23T14:17:24.865Z,5.90
2022-11-23T14:20:12.811Z,5.73
2022-11-23T14:22:53.914Z,8.88
2022-11-23T14:25:35.879Z,7.35
2022-11-23T14:28:17.213Z,7.40
2022-11-23T14:30:58.784Z,6.72
2022-11-23T14:33:39.208Z,6.87
2022-11-23T14:36:21.426Z,9.57
2022-11-23T14:39:03.376Z,10.32
2022-11-23T14:41:36.247Z,6.95
2022-11-23T14:44:05.164Z,7.57
2022-11-23T14:46:33.008Z,10.17
2022-11-23T14:49:15.450Z,7.20
2022-11-23T14:51:45.025Z,8.68
2022-11-23T14:54:15.622Z,10.50
2022-11-23T14:56:46.152Z,8.52
2022-11-23T14:59:21.720Z,5.33
2022-11-23T15:01:52.151Z,8.20
2022-11-23T15:04:25.848Z,7.78
2022-11-23T15:06:58.924Z,5.93
2022-11-23T15:09:41.172Z,5.97
2022-11-23T15:12:21.339Z,5.73
2022-11-23T15:14:50.520Z,8.70
2022-11-23T15:17:20.681Z,4.03
2022-11-23T15:19:57.121Z,7.03
2022-11-23T15:22:26.885Z,6.28
2022-11-23T15:24:55.526Z,6.27
2022-11-23T15:27:28.304Z,7.85
2022-11-23T15:29:57.940Z,8.45
2022-11-23T15:32:31.268Z,4.95
2022-11-23T15:35:06.619Z,7.55
2022-11-23T15:37:42.132Z,8.50
2022-11-23T15:40:14.695Z,5.80
2022-11-23T15:42:44.408Z,9.98
2022-11-23T15:46:00.761Z,6.85
2022-11-23T15:48:30.765Z,6.35
2022-11-23T15:51:01.304Z,5.60
2022-11-23T15:53:31.624Z,7.90
2022-11-23T15:56:05.527Z,6.95
2022-11-23T15:58:35.180Z,5.25
2022-11-23T16:01:08.490Z,8.02
2022-11-23T16:03:42.488Z,7.37
2022-11-23T16:06:18.577Z,8.75
2022-11-23T16:08:46.705Z,5.28
2022-11-23T16:11:30.806Z,8.40
2022-11-23T16:14:16.042Z,6.70
2022-11-23T16:16:46.365Z,6.67
2022-11-23T16:19:27.835Z,5.40
2022-11-23T16:22:02.546Z,7.65
2022-11-23T16:24:33.211Z,10.77
2022-11-23T16:27:01.446Z,11.32
2022-11-23T16:29:36.724Z,7.30
2022-11-23T16:32:07.044Z,8.82
2022-11-23T16:34:35.583Z,9.18
2022-11-23T16:37:04.861Z,8.27
2022-11-23T16:39:32.647Z,7.30
2022-11-23T16:42:00.888Z,9.97
2022-11-23T16:44:40.100Z,8.38
2022-11-23T16:47:23.012Z,13.20
2022-11-23T16:49:51.723Z,9.43
2022-11-23T16:52:22.614Z,20.35
2022-11-23T16:54:50.926Z,10.50
2022-11-23T16:57:23.250Z,11.25
2022-11-23T16:59:51.286Z,13.98
2022-11-23T17:02:19.422Z,11.85
2022-11-23T17:04:47.514Z,12.50
2022-11-23T17:07:16.807Z,13.37
2022-11-23T17:09:45.967Z,11.88
2022-11-23T17:12:17.102Z,15.13
2022-11-23T17:14:48.074Z,21.13
2022-11-23T17:17:20.747Z,14.60
2022-11-23T17:19:49.819Z,11.87
2022-11-23T17:22:18.393Z,13.93
2022-11-23T17:24:48.509Z,14.57
2022-11-23T17:27:18.147Z,12.32
2022-11-23T17:29:47.144Z,11.55
2022-11-23T17:32:15.602Z,16.37
2022-11-23T17:34:43.396Z,13.73
2022-11-23T17:37:17.800Z,14.52
2022-11-23T17:39:47.489Z,11.73
2022-11-23T17:42:15.290Z,14.90
2022-11-23T17:44:43.292Z,14.10
2022-11-23T17:47:18.899Z,12.85
2022-11-23T17:49:46.604Z,12.90
2022-11-23T17:52:14.289Z,13.02
2022-11-23T17:54:41.994Z,12.52
2022-11-23T17:57:14.759Z,14.60
2022-11-23T17:59:42.673Z,11.75
2022-11-23T18:02:10.851Z,14.02
2022-11-23T18:04:39.036Z,14.60
2022-11-23T18:07:07.319Z,15.60
2022-11-23T18:09:35.504Z,14.30
2022-11-23T18:12:03.400Z,12.00
2022-11-23T18:14:32.627Z,14.68
2022-11-23T18:17:00.478Z,12.80
2022-11-23T18:19:28.370Z,13.25
2022-11-23T18:21:56.214Z,12.23
2022-11-23T18:24:33.769Z,12.57
2022-11-23T18:27:02.456Z,12.18
2022-11-23T18:30:11.018Z,11.88
2022-11-23T18:32:38.978Z,12.65
2022-11-23T18:35:07.912Z,14.60
2022-11-23T18:37:35.770Z,15.57
2022-11-23T18:40:03.939Z,12.52
2022-11-23T18:42:31.799Z,17.73
2022-11-23T18:45:01.494Z,13.93
2022-11-23T18:47:29.257Z,11.23
2022-11-23T18:49:59.762Z,13.65
2022-11-23T18:52:31.231Z,13.80
2022-11-23T18:54:59.745Z,15.02
2022-11-23T18:57:27.491Z,12.73
2022-11-23T18:59:58.320Z,13.93
2022-11-23T19:02:27.850Z,12.73
2022-11-23T19:04:55.591Z,14.93
2022-11-23T19:07:27.038Z,15.05
2022-11-23T19:09:55.195Z,12.80
2022-11-23T19:12:23.119Z,12.77
2022-11-23T19:14:51.050Z,11.52
2022-11-23T19:17:18.890Z,16.75
2022-11-23T19:19:48.260Z,14.23
2022-11-23T19:22:15.946Z,13.10
2022-11-23T19:24:43.805Z,11.77
2022-11-23T19:27:11.526Z,18.45
2022-11-23T19:29:39.474Z,14.32
2022-11-23T19:32:07.538Z,12.45
2022-11-23T19:34:35.326Z,20.35
2022-11-23T19:37:04.484Z,16.67
2022-11-23T19:39:32.545Z,14.57
2022-11-23T19:42:00.436Z,16.85
2022-11-23T19:44:28.446Z,15.38
2022-11-23T19:46:56.467Z,14.48
2022-11-23T19:49:24.433Z,12.90
2022-11-23T19:51:53.702Z,19.77
2022-11-23T19:54:23.094Z,12.98
2022-11-23T19:56:51.629Z,14.40
2022-11-23T19:59:19.384Z,17.13
2022-11-23T20:01:47.289Z,17.07
2022-11-23T20:04:15.174Z,14.32
2022-11-23T20:06:43.327Z,14.75
2022-11-23T20:09:12.794Z,12.75
2022-11-23T20:11:43.868Z,14.93
2022-11-23T20:14:15.370Z,17.03
2022-11-23T20:16:43.530Z,13.90
2022-11-23T20:19:12.011Z,12.88
2022-11-23T20:21:40.064Z,13.18
2022-11-23T20:24:11.410Z,15.40
2022-11-23T20:26:40.169Z,13.43
2022-11-23T20:29:10.369Z,15.77
2022-11-23T20:31:39.371Z,12.98
2022-11-23T20:34:09.583Z,11.80
2022-11-23T20:36:40.320Z,15.57
2022-11-23T20:39:10.858Z,20.47
2022-11-23T20:41:39.155Z,13.80
2022-11-23T20:44:11.876Z,16.52
2022-11-23T20:49:28.048Z,17.27
2022-11-23T20:51:55.718Z,13.03
2022-11-23T20:54:23.488Z,17.42
2022-11-23T20:56:51.238Z,14.90
2022-11-23T20:59:20.647Z,14.80
2022-11-23T21:01:48.477Z,19.38
2022-11-23T21:04:16.194Z,19.70
2022-11-23T21:06:43.957Z,16.38
2022-11-23T21:09:12.280Z,15.23
2022-11-23T21:11:57.923Z,17.92
2022-11-23T21:14:28.404Z,15.63
2022-11-23T21:16:58.469Z,19.23
2022-11-23T21:19:28.573Z,21.05
2022-11-23T21:21:57.367Z,20.73
2022-11-23T21:24:25.910Z,13.68
2022-11-23T21:26:54.055Z,16.77
2022-11-23T21:29:21.999Z,18.93
2022-11-23T21:31:51.227Z,14.85
2022-11-23T21:34:20.945Z,17.02
2022-11-23T21:36:49.223Z,15.25
2022-11-23T21:39:17.884Z,10.50
2022-11-23T21:41:46.266Z,17.63
2022-11-23T21:44:14.136Z,20.02
2022-11-23T21:46:42.765Z,14.75
2022-11-23T21:49:12.927Z,18.25
2022-11-23T21:51:42.618Z,13.80
2022-11-23T21:54:14.280Z,13.67
2022-11-23T21:56:42.959Z,14.88
2022-11-23T21:59:11.168Z,17.52
2022-11-23T22:01:39.734Z,22.02
2022-11-23T22:04:10.593Z,14.02
2022-11-23T22:06:41.902Z,11.83
2022-11-23T22:09:10.989Z,15.77
2022-11-23T22:11:41.585Z,19.80
2022-11-23T22:14:12.011Z,17.27
2022-11-23T22:16:42.629Z,13.93
2022-11-23T22:19:12.023Z,14.90
2022-11-23T22:21:42.758Z,20.80
2022-11-23T22:24:13.475Z,18.10
2022-11-23T22:26:41.890Z,14.10
2022-11-23T22:29:10.592Z,17.58
2022-11-23T22:31:39.253Z,19.53
2022-11-23T22:34:09.256Z,15.43
2022-11-23T22:36:37.153Z,17.65
2022-11-23T22:39:07.767Z,17.63
2022-11-23T22:41:37.910Z,17.83
2022-11-23T22:44:07.761Z,14.53
2022-11-23T22:46:36.660Z,16.77
2022-11-23T22:49:04.863Z,15.85
2022-11-23T22:51:33.210Z,16.73
2022-11-23T22:54:01.739Z,17.10
2022-11-23T22:56:31.782Z,21.63
2022-11-23T22:59:00.246Z,18.08
2022-11-23T23:01:30.050Z,14.75
2022-11-23T23:04:02.805Z,15.27
2022-11-23T23:06:33.985Z,24.00
2022-11-23T23:09:02.621Z,17.47
2022-11-23T23:11:33.328Z,16.45
2022-11-23T23:14:01.644Z,18.08
2022-11-23T23:16:30.073Z,24.55
2022-11-23T23:18:59.335Z,19.60
2022-11-23T23:21:28.658Z,12.87
2022-11-23T23:23:58.606Z,18.52
2022-11-23T23:26:27.707Z,22.13
2022-11-23T23:28:57.628Z,15.88
2022-11-23T23:31:25.826Z,21.83
2022-11-23T23:33:54.545Z,25.17
2022-11-23T23:36:23.549Z,21.48
2022-11-23T23:38:51.961Z,27.35
2022-11-23T23:41:19.899Z,22.73
2022-11-23T23:43:48.889Z,16.48
2022-11-23T23:46:18.652Z,18.13
2022-11-23T23:48:46.776Z,24.77
2022-11-23T23:51:16.430Z,23.40
2022-11-23T23:53:45.321Z,19.80
2022-11-23T23:56:15.200Z,24.65
2022-11-23T23:58:43.526Z,29.20
